Time;durP1;ratioP1;P1;durP2;ratioP2;P2;SDS_P1;SDS_P2;PMS_P1;PMS_P2;Temp;Humidity;BMP_temperature;BMP_pressure;BME280_temperature;BME280_humidity;BME280_pressure;Samples;Min_cycle;Max_cycle;Signal;HPM_P1;HPM_P2
2023/10/11 00:00:40;;;;;;;;;;;;;;;26.02;30.71;101697.63;5085579;28;1169;-31
2023/10/11 00:03:14;;;;;;;;;;;;;;;25.94;30.64;101701.09;5098040;28;923;-30
2023/10/11 00:05:40;;;;;;;;;;;;;;;25.75;31.15;101702.06;5096286;28;1014;-35
2023/10/11 00:08:08;;;;;;;;;;;;;;;25.80;31.16;101708.69;5098962;28;1046;-36
2023/10/11 00:10:43;;;;;;;;;;;;;;;25.38;31.16;101699.22;5085035;28;1070;-31
2023/10/11 00:13:12;;;;;;;;;;;;;;;25.46;30.96;101709.25;5098199;28;1905;-36
2023/10/11 00:15:37;;;;;;;;;;;;;;;25.72;30.98;101700.50;5084708;28;1185;-31
2023/10/11 00:18:03;;;;;;;;;;;;;;;25.90;30.55;101708.63;5092680;28;1058;-32
2023/10/11 00:20:35;;;;;;;;;;;;;;;25.91;30.61;101704.06;5093899;28;947;-32
2023/10/11 00:23:01;;;;;;;;;;;;;;;25.99;30.94;101708.72;5097945;28;1061;-33
2023/10/11 00:25:27;;;;;;;;;;;;;;;25.96;30.75;101706.34;5094431;28;2622;-33
2023/10/11 00:27:53;;;;;;;;;;;;;;;25.89;31.20;101701.53;5098177;28;1042;-30
2023/10/11 00:30:19;;;;;;;;;;;;;;;25.87;31.33;101700.00;5076410;28;1078;-34
2023/10/11 00:32:47;;;;;;;;;;;;;;;25.90;31.08;101702.38;5097687;28;1990;-31
2023/10/11 00:35:18;;;;;;;;;;;;;;;25.77;31.17;101700.06;5097846;28;1061;-33
2023/10/11 00:37:51;;;;;;;;;;;;;;;25.80;31.16;101694.38;5079444;28;1038;-33
2023/10/11 00:40:25;;;;;;;;;;;;;;;25.79;31.06;101696.19;5084000;28;1029;-32
2023/10/11 00:42:51;;;;;;;;;;;;;;;25.78;30.89;101691.81;5094204;28;1134;-33
2023/10/11 00:45:17;;;;;;;;;;;;;;;25.77;30.91;101689.28;5090859;28;1185;-32
2023/10/11 00:47:45;;;;;;;;;;;;;;;25.70;31.20;101689.03;5090693;28;990;-29
2023/10/11 00:50:14;;;;;;;;;;;;;;;25.76;30.77;101695.66;5084607;28;1051;-34
2023/10/11 00:52:43;;;;;;;;;;;;;;;25.75;31.12;101691.28;5078866;28;1972;-33
2023/10/11 00:55:19;;;;;;;;;;;;;;;25.75;31.07;101699.34;5091001;28;2576;-32
2023/10/11 00:57:48;;;;;;;;;;;;;;;25.63;31.26;101696.00;5097252;28;982;-35
2023/10/11 01:00:21;;;;;;;;;;;;;;;25.63;31.06;101701.41;5096612;28;1074;-36
2023/10/11 01:02:47;;;;;;;;;;;;;;;25.65;30.89;101705.66;5065324;28;1116;-32
2023/10/11 01:05:13;;;;;;;;;;;;;;;25.64;31.18;101712.03;5096891;28;1026;-33
2023/10/11 01:07:41;;;;;;;;;;;;;;;25.53;31.21;101710.34;5086003;28;1092;-31
2023/10/11 01:10:07;;;;;;;;;;;;;;;25.62;31.17;101710.47;5078887;28;1406;-32
2023/10/11 01:12:33;;;;;;;;;;;;;;;25.42;31.52;101714.06;5083964;28;1976;-34
2023/10/11 01:14:59;;;;;;;;;;;;;;;25.68;31.28;101715.28;5086102;28;1185;-31
2023/10/11 01:17:31;;;;;;;;;;;;;;;25.51;31.46;101706.09;5072349;28;1193;-31
2023/10/11 01:20:00;;;;;;;;;;;;;;;25.59;31.56;101716.16;5093304;28;935;-31
2023/10/11 01:22:28;;;;;;;;;;;;;;;25.42;31.88;101724.84;5097072;28;1109;-34
2023/10/11 01:24:55;;;;;;;;;;;;;;;25.55;31.43;101727.22;5081263;28;2610;-33
2023/10/11 01:27:22;;;;;;;;;;;;;;;25.61;31.44;101728.47;5077989;28;1250;-35
2023/10/11 01:29:50;;;;;;;;;;;;;;;25.58;31.48;101733.28;5078549;28;1406;-33
2023/10/11 01:32:15;;;;;;;;;;;;;;;25.62;31.43;101740.09;5095297;28;945;-35
2023/10/11 01:34:44;;;;;;;;;;;;;;;25.67;31.49;101732.44;5096664;28;1985;-32
2023/10/11 01:37:11;;;;;;;;;;;;;;;25.54;31.81;101732.78;5078359;28;1034;-33
2023/10/11 01:39:36;;;;;;;;;;;;;;;25.51;31.78;101733.03;5082716;28;986;-31
2023/10/11 01:42:02;;;;;;;;;;;;;;;25.34;31.95;101713.97;5071272;28;1182;-31
2023/10/11 01:44:29;;;;;;;;;;;;;;;25.51;31.67;101739.28;5094850;28;988;-30
2023/10/11 01:46:54;;;;;;;;;;;;;;;25.50;31.84;101736.75;5096689;28;1033;-31
2023/10/11 01:49:20;;;;;;;;;;;;;;;25.44;31.86;101743.59;5095742;28;1101;-32
2023/10/11 01:51:48;;;;;;;;;;;;;;;25.44;31.81;101749.78;5096431;28;1248;-33
2023/10/11 01:54:18;;;;;;;;;;;;;;;25.49;31.59;101749.34;5068457;28;2271;-30
2023/10/11 01:56:45;;;;;;;;;;;;;;;25.45;31.78;101747.97;5084273;28;1067;-30
2023/10/11 01:59:12;;;;;;;;;;;;;;;25.38;31.89;101747.69;5064906;28;1209;-35
2023/10/11 02:01:40;;;;;;;;;;;;;;;25.42;31.67;101745.56;5077703;28;1328;-32
2023/10/11 02:04:10;;;;;;;;;;;;;;;25.41;32.05;101749.25;5077697;28;1340;-35
2023/10/11 02:06:38;;;;;;;;;;;;;;;25.30;32.21;101756.53;5089620;28;1146;-32
2023/10/11 02:09:03;;;;;;;;;;;;;;;25.30;32.33;101752.97;5096243;28;1038;-31
2023/10/11 02:11:29;;;;;;;;;;;;;;;25.28;32.32;101752.25;5069343;28;1313;-32
2023/10/11 02:13:57;;;;;;;;;;;;;;;25.48;32.02;101750.34;5106328;28;1964;-31
2023/10/11 02:16:23;;;;;;;;;;;;;;;25.25;32.28;101750.72;5077906;28;1244;-33
2023/10/11 02:18:52;;;;;;;;;;;;;;;25.48;32.25;101761.13;5094395;28;995;-31
2023/10/11 02:21:20;;;;;;;;;;;;;;;25.42;31.81;101761.72;5095959;28;1049;-32
2023/10/11 02:23:46;;;;;;;;;;;;;;;25.45;32.40;101769.50;5092277;28;2518;-32
2023/10/11 02:26:14;;;;;;;;;;;;;;;25.14;32.55;101765.19;5095978;28;1061;-31
2023/10/11 02:28:42;;;;;;;;;;;;;;;25.16;32.46;101763.19;5082309;28;1101;-34
2023/10/11 02:31:08;;;;;;;;;;;;;;;25.29;32.49;101764.75;5090227;28;1172;-35
2023/10/11 02:33:34;;;;;;;;;;;;;;;25.23;32.67;101768.00;5092832;28;1992;-35
2023/10/11 02:36:08;;;;;;;;;;;;;;;25.19;32.74;101767.47;5086198;28;1093;-32
2023/10/11 02:38:47;;;;;;;;;;;;;;;25.07;32.76;101770.28;5079375;28;1066;-30
2023/10/11 02:41:24;;;;;;;;;;;;;;;25.17;32.79;101772.13;5077614;28;1099;-33
2023/10/11 02:43:53;;;;;;;;;;;;;;;25.26;32.74;101768.56;5076297;28;801;-33
2023/10/11 02:46:24;;;;;;;;;;;;;;;25.26;32.21;101765.88;5077848;28;1224;-31
2023/10/11 02:48:54;;;;;;;;;;;;;;;25.31;32.45;101782.44;5095805;28;1014;-30
2023/10/11 02:51:24;;;;;;;;;;;;;;;25.13;33.08;101781.47;5079343;28;1221;-32
2023/10/11 02:53:52;;;;;;;;;;;;;;;25.23;32.52;101784.16;5061576;28;2480;-30
2023/10/11 02:56:17;;;;;;;;;;;;;;;25.26;32.70;101783.88;5079830;28;1125;-35
2023/10/11 02:58:43;;;;;;;;;;;;;;;25.05;33.02;101783.06;5086491;28;1086;-35
2023/10/11 03:01:15;;;;;;;;;;;;;;;25.13;32.57;101786.88;5063868;28;2003;-33
2023/10/11 03:03:42;;;;;;;;;;;;;;;24.78;33.48;101781.91;5077309;28;1360;-33
2023/10/11 03:06:08;;;;;;;;;;;;;;;25.06;33.21;101781.22;5063913;28;1023;-33
2023/10/11 03:08:34;;;;;;;;;;;;;;;25.21;32.70;101787.00;5073953;28;1101;-35
2023/10/11 03:11:04;;;;;;;;;;;;;;;24.76;33.82;101783.03;5095744;28;1086;-31
2023/10/11 03:13:30;;;;;;;;;;;;;;;24.55;33.93;101789.41;5077622;28;1976;-32
2023/10/11 03:15:56;;;;;;;;;;;;;;;24.42;34.33;101778.94;5090342;28;1081;-36
2023/10/11 03:18:24;;;;;;;;;;;;;;;24.70;33.78;101773.72;5075022;28;1035;-34
2023/10/11 03:20:51;;;;;;;;;;;;;;;24.85;33.45;101782.22;5083386;28;1146;-35
2023/10/11 03:23:20;;;;;;;;;;;;;;;25.36;32.60;101773.09;5082838;28;2527;-34
2023/10/11 03:25:50;;;;;;;;;;;;;;;25.03;32.92;101760.81;5088967;28;1150;-34
2023/10/11 03:28:15;;;;;;;;;;;;;;;25.20;33.16;101769.16;5093927;28;1201;-32
2023/10/11 03:30:42;;;;;;;;;;;;;;;24.98;33.36;101771.16;5099516;28;1030;-36
2023/10/11 03:33:08;;;;;;;;;;;;;;;25.12;32.98;101769.88;5081841;28;1898;-34
2023/10/11 03:35:34;;;;;;;;;;;;;;;25.25;32.96;101763.31;5099568;28;1088;-33
2023/10/11 03:38:00;;;;;;;;;;;;;;;25.10;33.00;101771.88;5085672;28;1142;-36
2023/10/11 03:40:34;;;;;;;;;;;;;;;25.31;32.73;101760.91;5099044;28;1100;-32
2023/10/11 03:43:01;;;;;;;;;;;;;;;24.79;31.67;101770.16;5098863;28;1105;-35
2023/10/11 03:45:27;;;;;;;;;;;;;;;24.03;25.34;101763.53;5078405;28;1867;-33
2023/10/11 03:47:53;;;;;;;;;;;;;;;23.56;24.77;101746.97;5078824;28;1018;-35
2023/10/11 03:50:25;;;;;;;;;;;;;;;24.13;26.93;101766.25;5078446;28;1090;-38
2023/10/11 03:52:51;;;;;;;;;;;;;;;22.64;26.73;101765.41;5078432;28;1901;-38
2023/10/11 03:55:16;;;;;;;;;;;;;;;23.04;25.86;101760.34;5073332;28;2641;-32
2023/10/11 03:57:42;;;;;;;;;;;;;;;23.42;25.59;101758.91;5078846;28;964;-35
2023/10/11 04:00:24;;;;;;;;;;;;;;;23.73;25.59;101766.13;5078235;28;1182;-36
2023/10/11 04:03:05;;;;;;;;;;;;;;;23.88;24.95;101763.06;5078098;28;1201;-37
2023/10/11 04:05:39;;;;;;;;;;;;;;;23.18;25.28;101759.16;5078138;28;1019;-32
2023/10/11 04:08:05;;;;;;;;;;;;;;;23.80;25.05;101767.28;5078167;28;994;-38
2023/10/11 04:10:46;;;;;;;;;;;;;;;24.04;24.91;101765.25;5078307;28;1023;-35
2023/10/11 04:13:15;;;;;;;;;;;;;;;24.08;24.53;101770.22;5072319;28;1968;-31
2023/10/11 04:15:49;;;;;;;;;;;;;;;23.61;24.42;101770.72;5079539;28;1007;-34
2023/10/11 04:18:20;;;;;;;;;;;;;;;23.08;24.94;101765.31;5065700;28;1042;-34
2023/10/11 04:20:51;;;;;;;;;;;;;;;23.16;24.86;101775.41;5077849;28;1034;-35
2023/10/11 04:23:24;;;;;;;;;;;;;;;23.15;25.28;101773.72;5077703;28;2507;-35
2023/10/11 04:25:49;;;;;;;;;;;;;;;24.11;24.78;101779.00;5078036;28;1040;-36
2023/10/11 04:28:15;;;;;;;;;;;;;;;24.39;25.21;101774.66;5077080;28;904;-36
2023/10/11 04:30:41;;;;;;;;;;;;;;;24.52;25.30;101790.56;5090462;28;1087;-34
2023/10/11 04:33:11;;;;;;;;;;;;;;;24.69;24.97;101790.84;5077671;28;1898;-32
2023/10/11 04:35:37;;;;;;;;;;;;;;;24.71;24.67;101802.31;5077617;28;1065;-34
2023/10/11 04:38:03;;;;;;;;;;;;;;;24.73;24.85;101807.53;5077307;28;982;-31
2023/10/11 04:40:41;;;;;;;;;;;;;;;24.69;25.34;101799.75;5076370;28;1042;-36
2023/10/11 04:43:25;;;;;;;;;;;;;;;24.87;25.15;101792.81;5078826;28;899;-32
2023/10/11 04:45:55;;;;;;;;;;;;;;;24.81;24.87;101802.31;5086445;28;1106;-35
2023/10/11 04:48:32;;;;;;;;;;;;;;;24.82;25.00;101810.22;5090422;28;1119;-35
2023/10/11 04:51:13;;;;;;;;;;;;;;;24.78;25.02;101806.13;5087818;28;1027;-32
2023/10/11 04:59:07;;;;;;;;;;;;;;;24.79;25.79;101820.47;5083988;28;1057;-30
2023/10/11 05:04:16;;;;;;;;;;;;;;;24.89;25.70;101820.47;5077304;28;1066;-32
2023/10/11 05:06:41;;;;;;;;;;;;;;;24.78;26.27;101821.44;5078703;28;1102;-29
2023/10/11 05:09:21;;;;;;;;;;;;;;;24.92;25.72;101822.91;5075928;28;1201;-32
2023/10/11 05:11:58;;;;;;;;;;;;;;;25.36;25.31;101824.28;5077914;28;924;-36
2023/10/11 05:14:29;;;;;;;;;;;;;;;25.17;24.85;101829.50;5090869;28;1906;-33
2023/10/11 05:19:45;;;;;;;;;;;;;;;25.02;25.09;101839.91;5081219;28;1146;-33
2023/10/11 05:22:17;;;;;;;;;;;;;;;25.02;25.12;101839.91;5091308;28;1189;-32
2023/10/11 05:25:12;;;;;;;;;;;;;;;25.13;24.89;101852.34;5075541;28;1500;-33
2023/10/11 05:27:47;;;;;;;;;;;;;;;25.09;24.71;101859.00;5085360;28;896;-32
2023/10/11 05:30:26;;;;;;;;;;;;;;;25.24;24.81;101858.59;5080640;28;1038;-29
2023/10/11 05:33:15;;;;;;;;;;;;;;;25.35;24.55;101868.34;5080155;28;1913;-29
2023/10/11 05:52:00;;;;;;;;;;;;;;;25.38;24.63;101887.75;5085183;28;1055;-29
2023/10/11 05:54:34;;;;;;;;;;;;;;;25.27;24.75;101880.69;5094647;28;1921;-34
2023/10/11 05:57:03;;;;;;;;;;;;;;;25.43;24.57;101884.63;5073570;28;1419;-33
2023/10/11 06:00:22;;;;;;;;;;;;;;;25.27;25.28;101887.91;5098375;27;1318;-18
2023/10/11 06:03:05;;;;;;;;;;;;;;;25.13;25.12;101890.03;5045632;27;1418610;-18
2023/10/11 06:05:39;;;;;;;;;;;;;;;25.34;26.35;101899.81;5092187;28;1022;-18
2023/10/11 06:10:06;;;;;;;;;;;;;;;25.38;25.39;101905.75;5093487;28;1341;-18
2023/10/11 06:12:33;;;;;;;;;;;;;;;25.79;24.89;101916.38;5066474;28;1064;-17
2023/10/11 06:15:03;;;;;;;;;;;;;;;26.06;24.36;101913.88;5076641;28;1059;-18
2023/10/11 06:17:48;;;;;;;;;;;;;;;25.59;24.59;101910.97;5059333;28;1321;-18
2023/10/11 06:20:23;;;;;;;;;;;;;;;25.63;24.99;101917.81;5062253;28;1270;-18
2023/10/11 06:22:52;;;;;;;;;;;;;;;25.86;24.60;101922.03;5054411;28;1305;-18
2023/10/11 06:25:23;;;;;;;;;;;;;;;25.90;24.88;101918.03;5060715;28;1061;-18
2023/10/11 06:30:23;;;;;;;;;;;;;;;25.98;24.53;101931.63;5073240;28;1162;-18
2023/10/11 06:32:50;;;;;;;;;;;;;;;25.86;24.41;101904.00;5064985;28;1315;-26
2023/10/11 06:35:25;;;;;;;;;;;;;;;26.03;24.58;101932.06;5065822;28;1178;-28
2023/10/11 06:37:54;;;;;;;;;;;;;;;26.09;24.34;101935.16;5073396;28;1048;-26
2023/10/11 06:40:38;;;;;;;;;;;;;;;26.11;24.44;101933.19;5072182;28;1074;-27
2023/10/11 06:43:07;;;;;;;;;;;;;;;25.96;24.81;101928.22;5072528;28;1015;-26
2023/10/11 06:45:33;;;;;;;;;;;;;;;25.98;24.63;101936.19;5072696;28;902;-29
2023/10/11 06:48:06;;;;;;;;;;;;;;;26.01;24.90;101939.44;5072630;28;1973;-27
2023/10/11 06:50:40;;;;;;;;;;;;;;;25.94;25.28;101937.47;5072293;28;1194;-25
2023/10/11 06:53:07;;;;;;;;;;;;;;;26.14;25.48;101935.56;5072411;28;1004;-27
2023/10/11 06:55:33;;;;;;;;;;;;;;;26.33;26.05;101942.75;5072707;28;1512;-26
2023/10/11 06:58:03;;;;;;;;;;;;;;;26.21;26.09;101936.66;5072622;28;1143;-28
2023/10/11 07:00:29;;;;;;;;;;;;;;;26.26;26.39;101931.69;5072752;28;1132;-27
2023/10/11 07:03:09;;;;;;;;;;;;;;;26.34;26.25;101939.06;5072651;28;1059;-27
2023/10/11 07:05:40;;;;;;;;;;;;;;;26.24;26.73;101914.78;5072369;28;1111;-25
2023/10/11 07:08:09;;;;;;;;;;;;;;;26.52;26.60;101940.97;5076568;28;1902;-28
2023/10/11 07:10:35;;;;;;;;;;;;;;;26.59;26.76;101943.91;5078269;28;858;-26
2023/10/11 07:13:12;;;;;;;;;;;;;;;26.80;26.50;101940.94;5092278;28;1075;-26
2023/10/11 07:15:43;;;;;;;;;;;;;;;26.96;26.16;101950.25;5089610;28;1210;-27
2023/10/11 07:18:10;;;;;;;;;;;;;;;26.92;26.52;101952.41;5085676;28;1084;-27
2023/10/11 07:20:49;;;;;;;;;;;;;;;26.63;27.26;101945.31;5079458;28;1087;-28
2023/10/11 07:23:19;;;;;;;;;;;;;;;26.61;27.12;101944.63;5065966;28;2088;-26
2023/10/11 07:25:47;;;;;;;;;;;;;;;26.85;27.11;101941.34;5061785;28;2280;-30
2023/10/11 07:28:35;;;;;;;;;;;;;;;27.05;27.01;101948.50;5067731;28;1914;-28
2023/10/11 07:30:59;;;;;;;;;;;;;;;27.19;26.93;101947.97;5067991;28;1892;-27
2023/10/11 07:33:26;;;;;;;;;;;;;;;27.43;26.64;101943.78;5059687;28;1865;-25
2023/10/11 07:35:51;;;;;;;;;;;;;;;27.27;26.91;101949.88;5070447;28;1989;-28
2023/10/11 07:38:17;;;;;;;;;;;;;;;27.24;26.67;101944.81;5078640;28;1060;-28
2023/10/11 07:40:46;;;;;;;;;;;;;;;27.33;26.70;101949.25;5065596;28;1358;-28
2023/10/11 07:43:15;;;;;;;;;;;;;;;27.20;26.92;101943.41;5074967;28;986;-28
2023/10/11 07:45:47;;;;;;;;;;;;;;;27.41;26.22;101950.34;5075853;28;1308;-27
2023/10/11 07:48:18;;;;;;;;;;;;;;;27.11;26.62;101961.41;5077796;28;1961;-26
2023/10/11 07:50:46;;;;;;;;;;;;;;;27.18;26.81;101957.06;5078465;28;1070;-27
2023/10/11 07:53:13;;;;;;;;;;;;;;;27.17;26.63;101946.41;5073863;28;1235;-31
2023/10/11 07:55:45;;;;;;;;;;;;;;;27.02;26.91;101963.16;5072365;28;1108;-26
2023/10/11 07:58:11;;;;;;;;;;;;;;;27.09;26.29;101953.41;5068134;28;838;-26
2023/10/11 08:00:41;;;;;;;;;;;;;;;27.25;26.14;101963.56;5072780;28;1305;-25
2023/10/11 08:03:11;;;;;;;;;;;;;;;27.47;25.71;101952.41;5077820;28;1064;-27
2023/10/11 08:05:44;;;;;;;;;;;;;;;27.50;25.36;101957.50;5077696;28;1086;-26
2023/10/11 08:08:13;;;;;;;;;;;;;;;27.36;25.90;101956.22;5077933;28;1909;-27
2023/10/11 08:10:44;;;;;;;;;;;;;;;27.65;25.39;101963.19;5077511;28;900;-27
2023/10/11 08:13:30;;;;;;;;;;;;;;;27.35;25.67;101958.06;5078102;28;1039;-29
2023/10/11 08:15:58;;;;;;;;;;;;;;;27.17;25.87;101936.47;5077938;28;1051;-27
2023/10/11 08:18:26;;;;;;;;;;;;;;;27.35;25.30;101965.31;5077688;28;1125;-26
2023/10/11 08:20:52;;;;;;;;;;;;;;;27.30;25.70;101946.88;5076292;28;1039;-24
2023/10/11 08:23:29;;;;;;;;;;;;;;;27.37;25.58;101947.09;5074728;28;874;-26
2023/10/11 08:25:55;;;;;;;;;;;;;;;27.37;25.51;101955.22;5077178;28;1171;-28
2023/10/11 08:28:28;;;;;;;;;;;;;;;27.50;25.16;101958.38;5077872;28;1977;-26
2023/10/11 08:30:57;;;;;;;;;;;;;;;27.59;24.37;101967.38;5090086;28;1070;-28
2023/10/11 08:33:25;;;;;;;;;;;;;;;27.55;24.61;101966.00;5086178;28;1046;-24
2023/10/11 08:35:53;;;;;;;;;;;;;;;27.72;24.34;101961.63;5089544;28;1043;-26
2023/10/11 08:38:20;;;;;;;;;;;;;;;27.67;24.27;101952.22;5078245;28;1050;-25
2023/10/11 08:40:49;;;;;;;;;;;;;;;27.24;24.79;101920.50;5067760;28;1114;-25
2023/10/11 08:43:18;;;;;;;;;;;;;;;27.58;24.69;101946.75;5072810;28;1047;-26
2023/10/11 08:45:48;;;;;;;;;;;;;;;27.49;24.73;101931.50;5075372;28;1044;-28
2023/10/11 08:48:13;;;;;;;;;;;;;;;27.58;24.60;101948.59;5084298;28;1979;-26
2023/10/11 08:50:44;;;;;;;;;;;;;;;27.88;24.05;101949.19;5063845;28;1012;-27
2023/10/11 08:53:10;;;;;;;;;;;;;;;27.75;23.98;101958.59;5097075;28;1058;-26
2023/10/11 08:55:41;;;;;;;;;;;;;;;27.74;24.03;101951.47;5081722;28;1151;-27
2023/10/11 08:58:12;;;;;;;;;;;;;;;27.74;23.84;101951.47;5070391;28;1131;-25
2023/10/11 09:00:38;;;;;;;;;;;;;;;27.60;24.34;101949.31;5067929;28;1507;-27
2023/10/11 09:03:17;;;;;;;;;;;;;;;27.69;23.29;101950.25;5078162;28;1196;-28
2023/10/11 09:05:43;;;;;;;;;;;;;;;27.55;23.96;101949.78;5062625;28;1282;-26
2023/10/11 09:08:18;;;;;;;;;;;;;;;27.62;23.67;101944.59;5090126;28;1918;-26
2023/10/11 09:10:49;;;;;;;;;;;;;;;27.80;23.56;101946.44;5067559;28;1893;-26
2023/10/11 09:13:23;;;;;;;;;;;;;;;27.57;23.97;101950.47;5072857;28;1207;-27
2023/10/11 09:15:54;;;;;;;;;;;;;;;27.55;23.91;101949.78;5061844;28;1690;-24
2023/10/11 09:18:19;;;;;;;;;;;;;;;27.57;23.96;101939.66;5074557;28;1008;-26
2023/10/11 09:20:56;;;;;;;;;;;;;;;27.65;23.80;101949.69;5069749;28;1147;-25
2023/10/11 09:23:33;;;;;;;;;;;;;;;27.65;23.68;101943.41;5081876;28;965;-26
2023/10/11 09:25:58;;;;;;;;;;;;;;;27.67;23.98;101954.94;5076363;28;1119;-26
2023/10/11 09:28:25;;;;;;;;;;;;;;;27.69;24.31;101947.56;5071962;28;1910;-26
2023/10/11 09:31:03;;;;;;;;;;;;;;;27.90;24.00;101951.72;5070167;28;1127;-28
2023/10/11 09:33:34;;;;;;;;;;;;;;;27.83;23.77;101948.81;5068670;28;1051;-27
2023/10/11 09:36:07;;;;;;;;;;;;;;;27.72;23.97;101952.66;5070938;28;1095;-27
2023/10/11 09:38:39;;;;;;;;;;;;;;;27.70;24.22;101941.13;5074702;28;1128;-28
2023/10/11 09:41:07;;;;;;;;;;;;;;;27.71;24.11;101951.78;5075580;28;1039;-29
2023/10/11 09:43:54;;;;;;;;;;;;;;;27.77;24.21;101944.06;5075629;28;1087;-25
2023/10/11 09:46:20;;;;;;;;;;;;;;;27.80;23.90;101939.19;5077298;28;1301;-27
2023/10/11 09:48:48;;;;;;;;;;;;;;;27.86;23.88;101943.13;5046329;28;1973;-29
2023/10/11 09:51:14;;;;;;;;;;;;;;;27.72;23.72;101939.97;5069934;28;1121;-27
2023/10/11 09:53:41;;;;;;;;;;;;;;;27.84;23.58;101932.44;5037628;28;1492;-30
2023/10/11 09:56:35;;;;;;;;;;;;;;;27.91;23.77;101927.25;5070654;28;1051;-28
2023/10/11 09:59:00;;;;;;;;;;;;;;;27.99;23.45;101935.41;5045164;28;1223;-30
2023/10/11 10:01:51;;;;;;;;;;;;;;;28.03;23.36;101933.22;5062793;28;1046;-30
2023/10/11 10:04:20;;;;;;;;;;;;;;;28.14;23.38;101921.28;5054878;28;1026;-29
2023/10/11 10:07:04;;;;;;;;;;;;;;;28.18;23.35;101910.97;5073108;28;1063;-26
2023/10/11 10:09:48;;;;;;;;;;;;;;;28.15;23.42;101922.13;5075203;28;1905;-27
2023/10/11 10:12:20;;;;;;;;;;;;;;;28.22;22.76;101924.03;5072379;28;1031;-28
2023/10/11 10:14:50;;;;;;;;;;;;;;;28.14;22.86;101921.28;5071885;28;1116;-27
2023/10/11 10:17:15;;;;;;;;;;;;;;;28.21;22.50;101918.78;5074889;28;1106;-25
2023/10/11 10:19:44;;;;;;;;;;;;;;;27.80;23.35;101919.41;5073931;28;996;-25
2023/10/11 10:22:10;;;;;;;;;;;;;;;27.69;23.15;101915.13;5070874;28;976;-26
2023/10/11 10:24:36;;;;;;;;;;;;;;;27.90;23.00;101925.56;5067790;28;1074;-25
2023/10/11 10:27:21;;;;;;;;;;;;;;;27.82;22.71;101917.38;5066167;28;1251;-26
2023/10/11 10:29:53;;;;;;;;;;;;;;;27.90;22.60;101913.88;5045770;28;2032;-26
2023/10/11 10:32:19;;;;;;;;;;;;;;;27.69;23.22;101907.88;5059754;28;1029;-29
2023/10/11 10:34:44;;;;;;;;;;;;;;;27.76;22.58;101908.03;5072720;28;1186;-30
2023/10/11 10:37:16;;;;;;;;;;;;;;;27.63;23.10;101905.75;5045633;28;1104;-25
2023/10/11 10:40:07;;;;;;;;;;;;;;;27.51;23.55;101916.81;5057422;28;1116;-24
2023/10/11 10:42:35;;;;;;;;;;;;;;;27.62;23.37;101909.47;5064366;28;1068;-25
2023/10/11 10:45:00;;;;;;;;;;;;;;;27.42;22.96;101911.50;5044278;28;1052;-27
2023/10/11 10:47:28;;;;;;;;;;;;;;;27.62;22.96;101902.22;5075252;28;1036;-24
2023/10/11 10:49:55;;;;;;;;;;;;;;;27.75;22.88;101903.66;5063336;28;1910;-26
2023/10/11 10:52:22;;;;;;;;;;;;;;;27.57;23.55;101895.56;5067026;28;845;-29
2023/10/11 10:55:03;;;;;;;;;;;;;;;27.63;23.23;101898.50;5074579;28;991;-25
2023/10/11 10:57:32;;;;;;;;;;;;;;;27.55;23.32;101908.38;5079170;28;1034;-27
2023/10/11 11:00:05;;;;;;;;;;;;;;;27.49;23.10;101894.50;5078083;28;1203;-29
2023/10/11 11:02:36;;;;;;;;;;;;;;;27.41;23.30;101907.13;5071633;28;1386;-25
2023/10/11 11:05:09;;;;;;;;;;;;;;;27.44;23.30;101894.16;5078152;28;1055;-28
2023/10/11 11:07:35;;;;;;;;;;;;;;;27.57;23.18;101896.44;5054679;28;1071;-25
2023/10/11 11:10:01;;;;;;;;;;;;;;;27.51;23.13;101902.44;5070325;28;1968;-26
2023/10/11 11:12:31;;;;;;;;;;;;;;;27.41;23.48;101899.00;5069762;28;958;-25
2023/10/11 11:14:56;;;;;;;;;;;;;;;27.33;23.36;101903.34;5078490;28;1116;-28
2023/10/11 11:17:45;;;;;;;;;;;;;;;27.44;23.03;101910.34;5075289;28;1362;-25
2023/10/11 11:20:15;;;;;;;;;;;;;;;27.33;23.21;101905.19;5072259;28;941;-27
2023/10/11 11:22:40;;;;;;;;;;;;;;;27.26;23.05;101900.41;5075989;28;976;-29
2023/10/11 11:25:16;;;;;;;;;;;;;;;27.29;22.93;101911.91;5085387;28;1153;-26
2023/10/11 11:27:43;;;;;;;;;;;;;;;27.30;22.38;101870.38;5061299;28;901;-29
2023/10/11 11:30:29;;;;;;;;;;;;;;;27.33;22.89;101899.78;5078336;28;1910;-26
2023/10/11 11:32:54;;;;;;;;;;;;;;;27.18;23.04;101903.03;5078076;28;1019;-27
2023/10/11 11:35:29;;;;;;;;;;;;;;;27.36;22.80;101902.19;5077964;28;1066;-29
2023/10/11 11:38:20;;;;;;;;;;;;;;;27.33;22.73;101906.03;5077708;28;1104;-29
2023/10/11 11:40:51;;;;;;;;;;;;;;;27.34;23.07;101896.09;5061298;28;1059;-27
2023/10/11 11:43:22;;;;;;;;;;;;;;;27.43;22.57;101892.44;5077526;28;1011;-25
2023/10/11 11:45:49;;;;;;;;;;;;;;;27.33;23.04;101892.53;5069786;28;1038;-27
2023/10/11 11:48:14;;;;;;;;;;;;;;;27.43;22.54;101889.72;5077452;28;1901;-25
2023/10/11 11:50:39;;;;;;;;;;;;;;;27.34;22.76;101896.91;5077908;28;1078;-27
2023/10/11 11:53:05;;;;;;;;;;;;;;;27.26;22.78;101886.03;5077691;28;1066;-27
2023/10/11 11:55:32;;;;;;;;;;;;;;;27.28;22.70;101894.00;5065984;28;1128;-27
2023/10/11 11:57:58;;;;;;;;;;;;;;;27.26;22.47;101886.91;5076065;28;1149;-30
2023/10/11 12:02:49;;;;;;;;;;;;;;;27.23;22.59;101886.34;5077523;28;1035;-25
2023/10/11 12:05:14;;;;;;;;;;;;;;;27.23;22.89;101889.91;5077995;28;991;-24
2023/10/11 12:07:40;;;;;;;;;;;;;;;27.16;22.84;101880.72;5076559;28;1455;-24
2023/10/11 12:10:10;;;;;;;;;;;;;;;27.24;22.51;101882.66;5077660;28;1974;-27
2023/10/11 12:12:36;;;;;;;;;;;;;;;26.98;22.63;101857.25;5076479;28;1051;-25
2023/10/11 12:15:03;;;;;;;;;;;;;;;27.32;22.56;101884.56;5077006;28;1094;-27
2023/10/11 12:17:29;;;;;;;;;;;;;;;27.23;22.64;101887.22;5077541;28;1178;-26
2023/10/11 12:19:54;;;;;;;;;;;;;;;27.30;22.52;101882.03;5077327;28;1091;-24
2023/10/11 12:22:22;;;;;;;;;;;;;;;27.22;22.97;101879.28;5076770;28;1115;-26
2023/10/11 12:24:48;;;;;;;;;;;;;;;27.13;22.87;101883.75;5076861;28;833;-25
2023/10/11 12:27:13;;;;;;;;;;;;;;;27.19;22.78;101883.16;5076327;28;1022;-26
2023/10/11 12:29:39;;;;;;;;;;;;;;;27.08;23.00;101878.81;5076563;28;1902;-27
2023/10/11 12:32:07;;;;;;;;;;;;;;;26.98;22.89;101857.25;5076425;28;1143;-25
2023/10/11 12:34:33;;;;;;;;;;;;;;;27.35;23.02;101876.16;5076676;28;1015;-26
2023/10/11 12:37:01;;;;;;;;;;;;;;;27.23;23.11;101880.94;5076401;28;1043;-26
2023/10/11 12:39:31;;;;;;;;;;;;;;;27.14;23.31;101880.06;5077499;28;1063;-29
2023/10/11 12:41:59;;;;;;;;;;;;;;;27.16;23.18;101882.59;5076933;28;1077;-27
2023/10/11 12:44:24;;;;;;;;;;;;;;;27.29;23.03;101877.66;5076360;28;1097;-28
2023/10/11 12:46:50;;;;;;;;;;;;;;;27.22;23.42;101873.88;5077006;28;1124;-25
2023/10/11 12:49:16;;;;;;;;;;;;;;;27.30;23.12;101871.22;5076865;28;1957;-25
2023/10/11 12:51:42;;;;;;;;;;;;;;;27.39;23.00;101872.97;5075779;28;988;-27
2023/10/11 12:54:11;;;;;;;;;;;;;;;27.48;23.02;101881.13;5076632;28;1108;-25
2023/10/11 12:56:37;;;;;;;;;;;;;;;27.41;23.16;101882.78;5076079;28;1186;-26
2023/10/11 12:59:03;;;;;;;;;;;;;;;27.35;23.17;101873.44;5076217;28;1128;-26
2023/10/11 13:01:39;;;;;;;;;;;;;;;27.36;23.07;101876.00;5076709;28;1012;-26
2023/10/11 13:04:17;;;;;;;;;;;;;;;27.30;23.19;101878.47;5076065;28;1039;-25
2023/10/11 13:06:49;;;;;;;;;;;;;;;27.05;23.46;101876.44;5067144;28;1265;-26
2023/10/11 13:09:15;;;;;;;;;;;;;;;27.07;23.39;101871.72;5063509;28;1914;-26
2023/10/11 13:11:44;;;;;;;;;;;;;;;27.12;23.56;101866.72;5070234;28;1144;-27
2023/10/11 13:14:18;;;;;;;;;;;;;;;27.36;23.67;101867.88;5065336;28;996;-26
2023/10/11 13:16:58;;;;;;;;;;;;;;;27.13;23.77;101870.25;5073850;28;1434;-26
2023/10/11 13:19:26;;;;;;;;;;;;;;;27.30;23.44;101871.22;5071860;28;1092;-25
2023/10/11 13:21:53;;;;;;;;;;;;;;;27.16;23.93;101872.63;5060669;28;1528;-27
2023/10/11 13:24:22;;;;;;;;;;;;;;;27.31;23.97;101863.97;5068031;28;1315;-24
2023/10/11 13:26:48;;;;;;;;;;;;;;;27.43;23.85;101861.84;5072022;28;1059;-27
2023/10/11 13:29:16;;;;;;;;;;;;;;;27.16;23.64;101861.00;5076012;28;1906;-27
2023/10/11 13:31:43;;;;;;;;;;;;;;;26.90;24.26;101860.75;5075001;28;1304;-27
2023/10/11 13:34:09;;;;;;;;;;;;;;;27.14;24.35;101851.19;5070136;28;1253;-28
2023/10/11 13:36:34;;;;;;;;;;;;;;;27.14;24.41;101853.88;5074937;28;992;-24